Terminal Aerodrome Forecast
Issued by NWS Pendleton, OR

Home | Current Version | Previous Version | Text Only | Print | Product List | Glossary On
Versions: 1 2 3 4 5 6 7 8 9 10 11 12 13 14 15 16 17 18 19 20 21 22
000
FTUS46 KPDT 242340
TAFPDT
TAF
KPDT 242340Z 2500/2524 23012KT P6SM FEW060 FEW250
     FM250200 15006KT P6SM SKC
     FM250900 14006KT P6SM BKN200
     FM252100 12006KT P6SM OVC100=

USA.gov is the U.S. government's official web portal to all federal, state and local government web resources and services.